sensor_id;sensor_type;location;lat;lon;timestamp;P1;durP1;ratioP1;P2;durP2;ratioP2
37131;SDS011;23035;50.032;21.978;2024-02-04T00:02:54;10.35;;;5.07;;
37131;SDS011;23035;50.032;21.978;2024-02-04T00:07:58;9.25;;;5.13;;
37131;SDS011;23035;50.032;21.978;2024-02-04T00:13:03;7.93;;;4.65;;
37131;SDS011;23035;50.032;21.978;2024-02-04T00:18:07;9.35;;;4.88;;
37131;SDS011;23035;50.032;21.978;2024-02-04T00:23:11;9.63;;;4.43;;
37131;SDS011;23035;50.032;21.978;2024-02-04T00:28:17;6.57;;;4.20;;
37131;SDS011;23035;50.032;21.978;2024-02-04T00:33:21;7.45;;;4.82;;
37131;SDS011;23035;50.032;21.978;2024-02-04T00:38:25;8.88;;;5.43;;
37131;SDS011;23035;50.032;21.978;2024-02-04T00:43:31;7.45;;;5.03;;
37131;SDS011;23035;50.032;21.978;2024-02-04T00:48:35;7.32;;;4.35;;
37131;SDS011;23035;50.032;21.978;2024-02-04T00:53:39;9.13;;;4.45;;
37131;SDS011;23035;50.032;21.978;2024-02-04T00:58:44;8.02;;;4.60;;
37131;SDS011;23035;50.032;21.978;2024-02-04T01:03:48;7.57;;;4.22;;
37131;SDS011;23035;50.032;21.978;2024-02-04T01:08:52;7.32;;;4.35;;
37131;SDS011;23035;50.032;21.978;2024-02-04T01:13:57;6.25;;;3.75;;
37131;SDS011;23035;50.032;21.978;2024-02-04T01:19:01;9.18;;;4.15;;
37131;SDS011;23035;50.032;21.978;2024-02-04T01:24:06;5.40;;;3.70;;
37131;SDS011;23035;50.032;21.978;2024-02-04T01:29:11;7.55;;;3.60;;
37131;SDS011;23035;50.032;21.978;2024-02-04T01:34:15;4.53;;;3.10;;
37131;SDS011;23035;50.032;21.978;2024-02-04T01:39:19;6.70;;;3.70;;
37131;SDS011;23035;50.032;21.978;2024-02-04T01:44:25;8.15;;;3.03;;
37131;SDS011;23035;50.032;21.978;2024-02-04T01:49:30;4.53;;;3.20;;
37131;SDS011;23035;50.032;21.978;2024-02-04T01:54:34;6.65;;;3.40;;
37131;SDS011;23035;50.032;21.978;2024-02-04T01:59:39;4.82;;;2.92;;
37131;SDS011;23035;50.032;21.978;2024-02-04T02:04:44;5.68;;;3.25;;
37131;SDS011;23035;50.032;21.978;2024-02-04T02:09:48;5.20;;;3.03;;
37131;SDS011;23035;50.032;21.978;2024-02-04T02:14:56;4.07;;;3.05;;
37131;SDS011;23035;50.032;21.978;2024-02-04T02:20:06;5.13;;;3.00;;
37131;SDS011;23035;50.032;21.978;2024-02-04T02:25:17;5.55;;;3.60;;
37131;SDS011;23035;50.032;21.978;2024-02-04T02:30:23;6.15;;;3.45;;
37131;SDS011;23035;50.032;21.978;2024-02-04T02:35:27;5.40;;;3.33;;
37131;SDS011;23035;50.032;21.978;2024-02-04T02:40:34;6.20;;;3.65;;
37131;SDS011;23035;50.032;21.978;2024-02-04T02:45:44;5.07;;;3.00;;
37131;SDS011;23035;50.032;21.978;2024-02-04T02:50:49;5.53;;;2.90;;
37131;SDS011;23035;50.032;21.978;2024-02-04T02:55:54;4.22;;;2.90;;
37131;SDS011;23035;50.032;21.978;2024-02-04T03:06:02;4.90;;;2.80;;
37131;SDS011;23035;50.032;21.978;2024-02-04T03:11:08;4.10;;;2.78;;
37131;SDS011;23035;50.032;21.978;2024-02-04T03:16:12;4.80;;;2.80;;
37131;SDS011;23035;50.032;21.978;2024-02-04T03:21:17;4.47;;;2.50;;
37131;SDS011;23035;50.032;21.978;2024-02-04T03:26:22;3.75;;;2.95;;
37131;SDS011;23035;50.032;21.978;2024-02-04T03:31:26;7.72;;;3.10;;
37131;SDS011;23035;50.032;21.978;2024-02-04T03:36:30;5.40;;;2.70;;
37131;SDS011;23035;50.032;21.978;2024-02-04T03:41:36;2.95;;;2.65;;
37131;SDS011;23035;50.032;21.978;2024-02-04T03:46:40;4.93;;;2.53;;
37131;SDS011;23035;50.032;21.978;2024-02-04T03:51:45;4.38;;;2.65;;
37131;SDS011;23035;50.032;21.978;2024-02-04T03:56:51;5.57;;;2.88;;
37131;SDS011;23035;50.032;21.978;2024-02-04T04:01:55;4.35;;;2.88;;
37131;SDS011;23035;50.032;21.978;2024-02-04T04:07:00;5.30;;;2.60;;
37131;SDS011;23035;50.032;21.978;2024-02-04T04:12:06;5.03;;;2.42;;
37131;SDS011;23035;50.032;21.978;2024-02-04T04:17:10;3.80;;;2.08;;
37131;SDS011;23035;50.032;21.978;2024-02-04T04:22:14;6.10;;;2.25;;
37131;SDS011;23035;50.032;21.978;2024-02-04T04:27:19;5.60;;;2.70;;
37131;SDS011;23035;50.032;21.978;2024-02-04T04:32:23;5.55;;;3.50;;
37131;SDS011;23035;50.032;21.978;2024-02-04T04:37:29;3.92;;;2.30;;
37131;SDS011;23035;50.032;21.978;2024-02-04T04:42:35;4.50;;;2.50;;
37131;SDS011;23035;50.032;21.978;2024-02-04T04:47:39;2.80;;;1.80;;
37131;SDS011;23035;50.032;21.978;2024-02-04T04:52:52;2.13;;;1.63;;
37131;SDS011;23035;50.032;21.978;2024-02-04T04:57:57;4.55;;;1.90;;
37131;SDS011;23035;50.032;21.978;2024-02-04T05:03:01;4.05;;;2.47;;
37131;SDS011;23035;50.032;21.978;2024-02-04T05:08:05;4.30;;;1.95;;
37131;SDS011;23035;50.032;21.978;2024-02-04T05:13:11;2.78;;;1.90;;
37131;SDS011;23035;50.032;21.978;2024-02-04T05:18:14;5.18;;;2.00;;
37131;SDS011;23035;50.032;21.978;2024-02-04T05:23:19;2.92;;;1.83;;
37131;SDS011;23035;50.032;21.978;2024-02-04T05:28:24;4.40;;;2.50;;
37131;SDS011;23035;50.032;21.978;2024-02-04T05:33:28;5.32;;;2.58;;
37131;SDS011;23035;50.032;21.978;2024-02-04T05:38:35;4.20;;;2.10;;
37131;SDS011;23035;50.032;21.978;2024-02-04T05:43:40;3.47;;;1.88;;
37131;SDS011;23035;50.032;21.978;2024-02-04T05:48:44;5.38;;;2.75;;
37131;SDS011;23035;50.032;21.978;2024-02-04T05:53:49;4.72;;;2.45;;
37131;SDS011;23035;50.032;21.978;2024-02-04T05:58:54;6.22;;;2.90;;
37131;SDS011;23035;50.032;21.978;2024-02-04T06:03:58;4.93;;;2.83;;
37131;SDS011;23035;50.032;21.978;2024-02-04T06:09:02;7.03;;;2.88;;
37131;SDS011;23035;50.032;21.978;2024-02-04T06:14:08;3.35;;;2.28;;
37131;SDS011;23035;50.032;21.978;2024-02-04T06:19:11;3.90;;;2.40;;
37131;SDS011;23035;50.032;21.978;2024-02-04T06:24:17;4.05;;;2.28;;
37131;SDS011;23035;50.032;21.978;2024-02-04T06:29:24;6.30;;;2.50;;
37131;SDS011;23035;50.032;21.978;2024-02-04T06:34:27;7.80;;;3.08;;
37131;SDS011;23035;50.032;21.978;2024-02-04T06:39:31;6.10;;;2.22;;
37131;SDS011;23035;50.032;21.978;2024-02-04T06:44:37;6.05;;;2.40;;
37131;SDS011;23035;50.032;21.978;2024-02-04T06:49:43;6.45;;;2.92;;
37131;SDS011;23035;50.032;21.978;2024-02-04T06:54:48;3.40;;;2.25;;
37131;SDS011;23035;50.032;21.978;2024-02-04T06:59:54;6.25;;;2.60;;
37131;SDS011;23035;50.032;21.978;2024-02-04T07:04:57;4.93;;;2.63;;
37131;SDS011;23035;50.032;21.978;2024-02-04T07:10:02;9.93;;;2.78;;
37131;SDS011;23035;50.032;21.978;2024-02-04T07:15:07;5.20;;;2.03;;
37131;SDS011;23035;50.032;21.978;2024-02-04T07:20:11;3.45;;;2.08;;
37131;SDS011;23035;50.032;21.978;2024-02-04T07:25:16;3.13;;;2.00;;
37131;SDS011;23035;50.032;21.978;2024-02-04T07:30:21;3.25;;;2.10;;
37131;SDS011;23035;50.032;21.978;2024-02-04T07:35:28;5.85;;;2.40;;
37131;SDS011;23035;50.032;21.978;2024-02-04T07:40:32;5.55;;;2.80;;
37131;SDS011;23035;50.032;21.978;2024-02-04T07:45:38;3.30;;;1.98;;
37131;SDS011;23035;50.032;21.978;2024-02-04T07:50:43;6.75;;;2.92;;
37131;SDS011;23035;50.032;21.978;2024-02-04T07:55:46;4.53;;;2.50;;
37131;SDS011;23035;50.032;21.978;2024-02-04T08:00:53;9.55;;;2.80;;
37131;SDS011;23035;50.032;21.978;2024-02-04T08:05:57;7.70;;;3.65;;
37131;SDS011;23035;50.032;21.978;2024-02-04T08:11:01;7.70;;;5.85;;
37131;SDS011;23035;50.032;21.978;2024-02-04T08:16:07;11.13;;;5.82;;
37131;SDS011;23035;50.032;21.978;2024-02-04T08:21:11;7.65;;;4.43;;
37131;SDS011;23035;50.032;21.978;2024-02-04T08:26:15;7.90;;;4.18;;
37131;SDS011;23035;50.032;21.978;2024-02-04T08:31:21;8.75;;;3.70;;
37131;SDS011;23035;50.032;21.978;2024-02-04T08:36:25;8.63;;;3.90;;
37131;SDS011;23035;50.032;21.978;2024-02-04T08:41:29;10.25;;;3.92;;
37131;SDS011;23035;50.032;21.978;2024-02-04T08:46:35;10.07;;;4.70;;
37131;SDS011;23035;50.032;21.978;2024-02-04T08:51:39;14.68;;;6.63;;
37131;SDS011;23035;50.032;21.978;2024-02-04T08:56:43;17.55;;;5.82;;
37131;SDS011;23035;50.032;21.978;2024-02-04T09:01:49;5.95;;;3.83;;
37131;SDS011;23035;50.032;21.978;2024-02-04T09:06:53;12.57;;;4.78;;
37131;SDS011;23035;50.032;21.978;2024-02-04T09:11:57;11.77;;;4.68;;
37131;SDS011;23035;50.032;21.978;2024-02-04T09:17:03;8.27;;;4.45;;
37131;SDS011;23035;50.032;21.978;2024-02-04T09:22:09;9.98;;;3.92;;
37131;SDS011;23035;50.032;21.978;2024-02-04T09:27:13;9.80;;;4.00;;
37131;SDS011;23035;50.032;21.978;2024-02-04T09:32:18;11.07;;;6.57;;
37131;SDS011;23035;50.032;21.978;2024-02-04T09:37:22;11.73;;;9.68;;
37131;SDS011;23035;50.032;21.978;2024-02-04T09:42:27;13.05;;;9.27;;
37131;SDS011;23035;50.032;21.978;2024-02-04T09:47:35;8.80;;;7.93;;
37131;SDS011;23035;50.032;21.978;2024-02-04T09:52:39;13.82;;;7.72;;
37131;SDS011;23035;50.032;21.978;2024-02-04T09:57:46;9.35;;;8.13;;
37131;SDS011;23035;50.032;21.978;2024-02-04T10:02:55;15.27;;;8.68;;
37131;SDS011;23035;50.032;21.978;2024-02-04T10:08:00;17.58;;;8.80;;
37131;SDS011;23035;50.032;21.978;2024-02-04T10:13:05;11.80;;;7.05;;
37131;SDS011;23035;50.032;21.978;2024-02-04T10:18:11;5.80;;;4.97;;
37131;SDS011;23035;50.032;21.978;2024-02-04T10:23:15;9.70;;;5.68;;
37131;SDS011;23035;50.032;21.978;2024-02-04T10:28:19;14.13;;;4.97;;
37131;SDS011;23035;50.032;21.978;2024-02-04T10:33:25;8.93;;;5.20;;
37131;SDS011;23035;50.032;21.978;2024-02-04T10:38:29;9.30;;;4.88;;
37131;SDS011;23035;50.032;21.978;2024-02-04T10:43:33;14.18;;;5.85;;
37131;SDS011;23035;50.032;21.978;2024-02-04T10:48:41;7.65;;;3.53;;
37131;SDS011;23035;50.032;21.978;2024-02-04T10:53:47;10.27;;;4.10;;
37131;SDS011;23035;50.032;21.978;2024-02-04T10:58:53;10.82;;;3.50;;
37131;SDS011;23035;50.032;21.978;2024-02-04T11:03:59;5.70;;;2.95;;
37131;SDS011;23035;50.032;21.978;2024-02-04T11:09:07;14.70;;;4.25;;
37131;SDS011;23035;50.032;21.978;2024-02-04T11:14:13;8.52;;;3.70;;
37131;SDS011;23035;50.032;21.978;2024-02-04T11:19:23;8.60;;;3.10;;
37131;SDS011;23035;50.032;21.978;2024-02-04T11:24:43;8.48;;;2.90;;
37131;SDS011;23035;50.032;21.978;2024-02-04T11:29:59;8.88;;;3.60;;
37131;SDS011;23035;50.032;21.978;2024-02-04T11:35:05;7.00;;;3.25;;
37131;SDS011;23035;50.032;21.978;2024-02-04T11:40:14;6.18;;;2.38;;
37131;SDS011;23035;50.032;21.978;2024-02-04T11:45:19;7.50;;;3.13;;
37131;SDS011;23035;50.032;21.978;2024-02-04T11:50:28;8.20;;;3.22;;
37131;SDS011;23035;50.032;21.978;2024-02-04T11:55:34;11.55;;;3.28;;
37131;SDS011;23035;50.032;21.978;2024-02-04T12:00:42;7.32;;;3.17;;
37131;SDS011;23035;50.032;21.978;2024-02-04T12:10:53;8.02;;;3.53;;
37131;SDS011;23035;50.032;21.978;2024-02-04T12:15:58;8.30;;;3.72;;
37131;SDS011;23035;50.032;21.978;2024-02-04T12:21:04;8.10;;;3.88;;
37131;SDS011;23035;50.032;21.978;2024-02-04T12:26:08;9.43;;;4.00;;
37131;SDS011;23035;50.032;21.978;2024-02-04T12:31:18;8.10;;;3.15;;
37131;SDS011;23035;50.032;21.978;2024-02-04T12:36:23;13.60;;;4.68;;
37131;SDS011;23035;50.032;21.978;2024-02-04T12:41:29;7.38;;;3.53;;
37131;SDS011;23035;50.032;21.978;2024-02-04T12:46:33;10.65;;;5.43;;
37131;SDS011;23035;50.032;21.978;2024-02-04T12:51:38;12.60;;;4.78;;
37131;SDS011;23035;50.032;21.978;2024-02-04T12:56:43;8.10;;;3.88;;
37131;SDS011;23035;50.032;21.978;2024-02-04T13:01:51;17.63;;;4.88;;
37131;SDS011;23035;50.032;21.978;2024-02-04T13:06:57;6.88;;;3.40;;
37131;SDS011;23035;50.032;21.978;2024-02-04T13:12:05;9.07;;;3.85;;
37131;SDS011;23035;50.032;21.978;2024-02-04T13:17:11;15.07;;;5.15;;
37131;SDS011;23035;50.032;21.978;2024-02-04T13:22:17;11.98;;;3.97;;
37131;SDS011;23035;50.032;21.978;2024-02-04T13:27:21;11.18;;;4.00;;
37131;SDS011;23035;50.032;21.978;2024-02-04T13:32:25;16.52;;;5.13;;
37131;SDS011;23035;50.032;21.978;2024-02-04T13:37:30;8.15;;;3.42;;
37131;SDS011;23035;50.032;21.978;2024-02-04T13:42:35;17.13;;;5.43;;
37131;SDS011;23035;50.032;21.978;2024-02-04T13:47:39;13.20;;;5.38;;
37131;SDS011;23035;50.032;21.978;2024-02-04T13:52:45;13.85;;;4.50;;
37131;SDS011;23035;50.032;21.978;2024-02-04T13:57:49;9.73;;;4.07;;
37131;SDS011;23035;50.032;21.978;2024-02-04T14:02:53;9.63;;;4.00;;
37131;SDS011;23035;50.032;21.978;2024-02-04T14:07:58;6.85;;;2.88;;
37131;SDS011;23035;50.032;21.978;2024-02-04T14:13:02;10.30;;;4.32;;
37131;SDS011;23035;50.032;21.978;2024-02-04T14:18:12;8.02;;;3.42;;
37131;SDS011;23035;50.032;21.978;2024-02-04T14:23:17;8.57;;;4.30;;
37131;SDS011;23035;50.032;21.978;2024-02-04T14:28:21;9.02;;;4.15;;
37131;SDS011;23035;50.032;21.978;2024-02-04T14:33:25;9.35;;;4.40;;
37131;SDS011;23035;50.032;21.978;2024-02-04T14:38:31;10.82;;;4.57;;
37131;SDS011;23035;50.032;21.978;2024-02-04T14:43:40;15.95;;;4.32;;
37131;SDS011;23035;50.032;21.978;2024-02-04T14:48:44;14.65;;;5.13;;
37131;SDS011;23035;50.032;21.978;2024-02-04T14:53:50;18.20;;;7.55;;
37131;SDS011;23035;50.032;21.978;2024-02-04T14:58:57;12.00;;;5.95;;
37131;SDS011;23035;50.032;21.978;2024-02-04T15:04:01;12.23;;;4.53;;
37131;SDS011;23035;50.032;21.978;2024-02-04T15:09:07;11.98;;;5.90;;
37131;SDS011;23035;50.032;21.978;2024-02-04T15:14:12;12.85;;;6.57;;
37131;SDS011;23035;50.032;21.978;2024-02-04T15:19:19;15.57;;;5.55;;
37131;SDS011;23035;50.032;21.978;2024-02-04T15:24:25;9.98;;;4.88;;
37131;SDS011;23035;50.032;21.978;2024-02-04T15:29:30;12.98;;;5.60;;
37131;SDS011;23035;50.032;21.978;2024-02-04T15:34:37;9.25;;;5.30;;
37131;SDS011;23035;50.032;21.978;2024-02-04T15:39:42;12.52;;;6.45;;
37131;SDS011;23035;50.032;21.978;2024-02-04T15:44:46;13.73;;;6.07;;
37131;SDS011;23035;50.032;21.978;2024-02-04T15:49:51;16.17;;;7.18;;
37131;SDS011;23035;50.032;21.978;2024-02-04T15:54:57;16.30;;;7.85;;
37131;SDS011;23035;50.032;21.978;2024-02-04T16:00:03;14.18;;;7.70;;
37131;SDS011;23035;50.032;21.978;2024-02-04T16:05:14;21.80;;;9.98;;
37131;SDS011;23035;50.032;21.978;2024-02-04T16:10:21;19.88;;;8.68;;
37131;SDS011;23035;50.032;21.978;2024-02-04T16:15:26;18.63;;;7.75;;
37131;SDS011;23035;50.032;21.978;2024-02-04T16:25:41;14.48;;;7.18;;
37131;SDS011;23035;50.032;21.978;2024-02-04T16:30:45;28.38;;;11.70;;
37131;SDS011;23035;50.032;21.978;2024-02-04T16:35:50;23.98;;;9.18;;
37131;SDS011;23035;50.032;21.978;2024-02-04T16:40:56;16.90;;;6.90;;
37131;SDS011;23035;50.032;21.978;2024-02-04T16:46:00;18.05;;;8.45;;
37131;SDS011;23035;50.032;21.978;2024-02-04T16:51:04;15.55;;;6.93;;
37131;SDS011;23035;50.032;21.978;2024-02-04T16:56:09;12.43;;;6.90;;
37131;SDS011;23035;50.032;21.978;2024-02-04T17:01:13;13.63;;;7.07;;
37131;SDS011;23035;50.032;21.978;2024-02-04T17:06:18;15.30;;;7.40;;
37131;SDS011;23035;50.032;21.978;2024-02-04T17:11:24;15.52;;;7.78;;
37131;SDS011;23035;50.032;21.978;2024-02-04T17:16:32;17.45;;;8.65;;
37131;SDS011;23035;50.032;21.978;2024-02-04T17:21:43;21.85;;;10.25;;
37131;SDS011;23035;50.032;21.978;2024-02-04T17:26:56;21.80;;;8.77;;
37131;SDS011;23035;50.032;21.978;2024-02-04T17:32:03;17.73;;;9.10;;
37131;SDS011;23035;50.032;21.978;2024-02-04T17:37:12;15.68;;;7.97;;
37131;SDS011;23035;50.032;21.978;2024-02-04T17:42:17;16.25;;;8.32;;
37131;SDS011;23035;50.032;21.978;2024-02-04T17:47:22;12.73;;;7.03;;
37131;SDS011;23035;50.032;21.978;2024-02-04T17:52:27;14.65;;;6.88;;
37131;SDS011;23035;50.032;21.978;2024-02-04T17:57:33;14.35;;;6.63;;
37131;SDS011;23035;50.032;21.978;2024-02-04T18:02:40;12.43;;;6.07;;
37131;SDS011;23035;50.032;21.978;2024-02-04T18:07:49;14.48;;;8.18;;
37131;SDS011;23035;50.032;21.978;2024-02-04T18:12:57;13.60;;;9.73;;
37131;SDS011;23035;50.032;21.978;2024-02-04T18:18:03;17.77;;;10.15;;
37131;SDS011;23035;50.032;21.978;2024-02-04T18:23:07;13.15;;;8.52;;
37131;SDS011;23035;50.032;21.978;2024-02-04T18:28:15;18.10;;;8.50;;
37131;SDS011;23035;50.032;21.978;2024-02-04T18:38:24;9.10;;;5.10;;
37131;SDS011;23035;50.032;21.978;2024-02-04T18:43:29;13.40;;;7.45;;
37131;SDS011;23035;50.032;21.978;2024-02-04T18:48:34;10.20;;;5.15;;
37131;SDS011;23035;50.032;21.978;2024-02-04T18:53:39;12.35;;;6.30;;
37131;SDS011;23035;50.032;21.978;2024-02-04T18:58:45;12.70;;;8.15;;
37131;SDS011;23035;50.032;21.978;2024-02-04T19:03:53;10.85;;;9.55;;
37131;SDS011;23035;50.032;21.978;2024-02-04T19:08:57;12.90;;;11.38;;
37131;SDS011;23035;50.032;21.978;2024-02-04T19:14:03;12.43;;;8.95;;
37131;SDS011;23035;50.032;21.978;2024-02-04T19:19:07;11.15;;;8.18;;
37131;SDS011;23035;50.032;21.978;2024-02-04T19:24:13;11.30;;;9.07;;
37131;SDS011;23035;50.032;21.978;2024-02-04T19:29:21;7.70;;;6.65;;
37131;SDS011;23035;50.032;21.978;2024-02-04T19:34:26;9.15;;;6.80;;
37131;SDS011;23035;50.032;21.978;2024-02-04T19:39:30;10.23;;;7.85;;
37131;SDS011;23035;50.032;21.978;2024-02-04T19:44:35;12.82;;;7.60;;
37131;SDS011;23035;50.032;21.978;2024-02-04T19:49:40;18.20;;;9.73;;
37131;SDS011;23035;50.032;21.978;2024-02-04T19:54:46;15.52;;;8.65;;
37131;SDS011;23035;50.032;21.978;2024-02-04T19:59:52;9.30;;;4.75;;
37131;SDS011;23035;50.032;21.978;2024-02-04T20:04:59;7.82;;;4.72;;
37131;SDS011;23035;50.032;21.978;2024-02-04T20:10:03;9.65;;;4.30;;
37131;SDS011;23035;50.032;21.978;2024-02-04T20:15:09;8.17;;;4.90;;
37131;SDS011;23035;50.032;21.978;2024-02-04T20:20:13;7.93;;;3.92;;
37131;SDS011;23035;50.032;21.978;2024-02-04T20:25:17;11.20;;;4.80;;
37131;SDS011;23035;50.032;21.978;2024-02-04T20:30:27;6.60;;;4.00;;
37131;SDS011;23035;50.032;21.978;2024-02-04T20:35:32;7.80;;;3.83;;
37131;SDS011;23035;50.032;21.978;2024-02-04T20:40:36;7.90;;;3.97;;
37131;SDS011;23035;50.032;21.978;2024-02-04T20:45:42;13.27;;;5.13;;
37131;SDS011;23035;50.032;21.978;2024-02-04T20:50:47;8.60;;;4.28;;
37131;SDS011;23035;50.032;21.978;2024-02-04T20:55:51;6.38;;;3.17;;
37131;SDS011;23035;50.032;21.978;2024-02-04T21:00:57;6.38;;;3.25;;
37131;SDS011;23035;50.032;21.978;2024-02-04T21:06:01;9.93;;;3.42;;
37131;SDS011;23035;50.032;21.978;2024-02-04T21:11:06;9.35;;;3.60;;
37131;SDS011;23035;50.032;21.978;2024-02-04T21:16:11;20.70;;;6.10;;
37131;SDS011;23035;50.032;21.978;2024-02-04T21:21:15;13.95;;;5.22;;
37131;SDS011;23035;50.032;21.978;2024-02-04T21:26:20;13.82;;;3.65;;
37131;SDS011;23035;50.032;21.978;2024-02-04T21:31:26;26.55;;;6.72;;
37131;SDS011;23035;50.032;21.978;2024-02-04T21:36:32;26.70;;;6.07;;
37131;SDS011;23035;50.032;21.978;2024-02-04T21:41:36;11.02;;;3.88;;
37131;SDS011;23035;50.032;21.978;2024-02-04T21:46:45;22.17;;;4.93;;
37131;SDS011;23035;50.032;21.978;2024-02-04T21:51:50;20.05;;;4.75;;
37131;SDS011;23035;50.032;21.978;2024-02-04T21:56:54;11.98;;;4.07;;
37131;SDS011;23035;50.032;21.978;2024-02-04T22:02:00;8.48;;;3.08;;
37131;SDS011;23035;50.032;21.978;2024-02-04T22:07:04;10.07;;;3.53;;
37131;SDS011;23035;50.032;21.978;2024-02-04T22:12:08;16.38;;;5.95;;
37131;SDS011;23035;50.032;21.978;2024-02-04T22:17:14;13.55;;;4.55;;
37131;SDS011;23035;50.032;21.978;2024-02-04T22:22:17;17.65;;;4.68;;
37131;SDS011;23035;50.032;21.978;2024-02-04T22:27:21;17.85;;;5.40;;
37131;SDS011;23035;50.032;21.978;2024-02-04T22:32:27;10.18;;;4.47;;
37131;SDS011;23035;50.032;21.978;2024-02-04T22:37:32;9.77;;;2.80;;
37131;SDS011;23035;50.032;21.978;2024-02-04T22:42:36;10.23;;;3.85;;
37131;SDS011;23035;50.032;21.978;2024-02-04T22:47:42;5.07;;;3.08;;
37131;SDS011;23035;50.032;21.978;2024-02-04T22:52:46;8.90;;;3.13;;
37131;SDS011;23035;50.032;21.978;2024-02-04T22:57:51;11.15;;;3.30;;
37131;SDS011;23035;50.032;21.978;2024-02-04T23:02:57;8.13;;;3.40;;
37131;SDS011;23035;50.032;21.978;2024-02-04T23:08:03;12.45;;;3.30;;
37131;SDS011;23035;50.032;21.978;2024-02-04T23:13:07;11.87;;;4.30;;
37131;SDS011;23035;50.032;21.978;2024-02-04T23:18:16;14.70;;;6.65;;
37131;SDS011;23035;50.032;21.978;2024-02-04T23:23:21;17.17;;;8.80;;
37131;SDS011;23035;50.032;21.978;2024-02-04T23:28:26;13.68;;;8.80;;
37131;SDS011;23035;50.032;21.978;2024-02-04T23:33:32;11.00;;;8.80;;
37131;SDS011;23035;50.032;21.978;2024-02-04T23:38:36;12.45;;;8.00;;
37131;SDS011;23035;50.032;21.978;2024-02-04T23:43:40;15.43;;;8.95;;
37131;SDS011;23035;50.032;21.978;2024-02-04T23:48:45;15.55;;;7.60;;
37131;SDS011;23035;50.032;21.978;2024-02-04T23:53:49;13.98;;;8.30;;
37131;SDS011;23035;50.032;21.978;2024-02-04T23:58:53;12.45;;;7.25;;
